BIRK

Reykjavik Airport

Reykjavik, Iceland
TAF BIRK 201629Z 2018/2118 28007KT 9999 SCT020 BKN040 TX10/2115Z TN04/2105Z PROB40 TEMPO 2018/2021 5000 -RA BKN015 BECMG 2103/2106 07010KT
Issued Valid From Valid To
Apr-20 @ 16:29 UTC
(2 hours ago)
Apr-20 @ 18:00 UTC
(35 minutes ago)
Apr-21 @ 18:00 UTC
(in 23 hours)
Apr-20 @ 18:00 to Apr-21 @ 03:00
TAF BIRK 201629Z 2018/2118 28007KT 9999 SCT020 BKN040 TX10/2115Z TN04/2105Z
Wind Visibility Clouds
280° at 7 knots 10,000+ meters
  • Scattered at 2,000' AGL
  • Broken at 4,000' AGL
Temporary  (Probability 40%) Apr-20 @ 18:00 to Apr-20 @ 21:00
PROB40 TEMPO 2018/2021 5000 -RA BKN015
Visibility Clouds Conditions
5,005 meters
  • Broken at 1,500' AGL
  • Light Rain
Becoming Apr-21 @ 03:00 to Apr-21 @ 18:00
BECMG 2103/2106 07010KT
Wind Visibility Clouds
70° at 10 knots 10,000+ meters
  • Scattered at 2,000' AGL
  • Broken at 4,000' AGL
TAF BIRK 201629Z 2018/2118 28007KT 9999 SCT020 BKN040 TX10/2115Z TN04/2105Z PROB40 TEMPO 2018/2021 5000 -RA BKN015 BECMG 2103/2106 07010KT
Issued Apr-20 @ 16:29 UTC
(2 hours ago)
Valid From Apr-20 @ 18:00 UTC
(35 minutes ago)
Valid To Apr-21 @ 18:00 UTC
(in 23 hours)
Apr-20 @ 18:00 - Apr-21 @ 03:00
Wind Visibility
280° at 7 knots 10,000+ meters
Clouds
  • Scattered at 2,000' AGL
  • Broken at 4,000' AGL
Probability 40% Temporary Apr-20 @ 18:00 - Apr-20 @ 21:00
Clouds
  • Broken at 1,500' AGL
Conditions
  • Light Rain
Becoming Apr-21 @ 03:00 - Apr-21 @ 18:00
Wind Visibility
70° at 10 knots 10,000+ meters
Clouds
  • Scattered at 2,000' AGL
  • Broken at 4,000' AGL